sensor_id;sensor_type;location;lat;lon;timestamp;P1;durP1;ratioP1;P2;durP2;ratioP2
77948;SDS011;67146;51.236;-0.336;2023-11-19T00:02:41;22.73;;;2.40;;
77948;SDS011;67146;51.236;-0.336;2023-11-19T00:05:10;28.45;;;4.47;;
77948;SDS011;67146;51.236;-0.336;2023-11-19T00:08:01;22.00;;;3.47;;
77948;SDS011;67146;51.236;-0.336;2023-11-19T00:10:37;23.10;;;3.50;;
77948;SDS011;67146;51.236;-0.336;2023-11-19T00:13:06;25.35;;;3.97;;
77948;SDS011;67146;51.236;-0.336;2023-11-19T00:15:42;21.55;;;2.88;;
77948;SDS011;67146;51.236;-0.336;2023-11-19T00:18:21;29.67;;;4.80;;
77948;SDS011;67146;51.236;-0.336;2023-11-19T00:20:53;22.60;;;2.25;;
77948;SDS011;67146;51.236;-0.336;2023-11-19T00:23:24;16.70;;;2.42;;
77948;SDS011;67146;51.236;-0.336;2023-11-19T00:26:00;22.55;;;3.00;;
77948;SDS011;67146;51.236;-0.336;2023-11-19T00:28:32;24.77;;;3.85;;
77948;SDS011;67146;51.236;-0.336;2023-11-19T00:34:19;17.48;;;2.03;;
77948;SDS011;67146;51.236;-0.336;2023-11-19T00:37:42;25.38;;;4.18;;
77948;SDS011;67146;51.236;-0.336;2023-11-19T00:40:33;17.27;;;2.92;;
77948;SDS011;67146;51.236;-0.336;2023-11-19T00:43:18;21.38;;;2.55;;
77948;SDS011;67146;51.236;-0.336;2023-11-19T00:46:25;25.08;;;2.83;;
77948;SDS011;67146;51.236;-0.336;2023-11-19T00:49:18;17.73;;;2.22;;
77948;SDS011;67146;51.236;-0.336;2023-11-19T00:51:46;22.73;;;3.85;;
77948;SDS011;67146;51.236;-0.336;2023-11-19T00:57:25;18.02;;;2.30;;
77948;SDS011;67146;51.236;-0.336;2023-11-19T01:00:30;19.50;;;2.50;;
77948;SDS011;67146;51.236;-0.336;2023-11-19T01:03:08;20.42;;;2.30;;
77948;SDS011;67146;51.236;-0.336;2023-11-19T01:05:48;26.92;;;4.35;;
77948;SDS011;67146;51.236;-0.336;2023-11-19T01:08:20;20.98;;;2.53;;
77948;SDS011;67146;51.236;-0.336;2023-11-19T01:11:04;22.17;;;2.85;;
77948;SDS011;67146;51.236;-0.336;2023-11-19T01:13:38;22.40;;;2.60;;
77948;SDS011;67146;51.236;-0.336;2023-11-19T01:16:14;23.58;;;2.85;;
77948;SDS011;67146;51.236;-0.336;2023-11-19T01:19:16;24.35;;;2.70;;
77948;SDS011;67146;51.236;-0.336;2023-11-19T01:22:30;21.58;;;3.25;;
77948;SDS011;67146;51.236;-0.336;2023-11-19T01:25:16;16.73;;;3.10;;
77948;SDS011;67146;51.236;-0.336;2023-11-19T01:27:54;17.73;;;2.70;;
77948;SDS011;67146;51.236;-0.336;2023-11-19T01:30:37;17.98;;;2.50;;
77948;SDS011;67146;51.236;-0.336;2023-11-19T01:33:13;15.02;;;1.67;;
77948;SDS011;67146;51.236;-0.336;2023-11-19T01:35:54;25.23;;;3.13;;
77948;SDS011;67146;51.236;-0.336;2023-11-19T01:38:50;20.38;;;2.55;;
77948;SDS011;67146;51.236;-0.336;2023-11-19T01:41:21;22.50;;;2.67;;
77948;SDS011;67146;51.236;-0.336;2023-11-19T01:44:01;18.67;;;2.78;;
77948;SDS011;67146;51.236;-0.336;2023-11-19T01:46:45;24.55;;;3.25;;
77948;SDS011;67146;51.236;-0.336;2023-11-19T01:49:40;20.80;;;3.33;;
77948;SDS011;67146;51.236;-0.336;2023-11-19T01:52:26;23.92;;;3.50;;
77948;SDS011;67146;51.236;-0.336;2023-11-19T02:01:50;20.30;;;4.03;;
77948;SDS011;67146;51.236;-0.336;2023-11-19T02:04:34;19.80;;;3.08;;
77948;SDS011;67146;51.236;-0.336;2023-11-19T02:07:11;22.02;;;3.70;;
77948;SDS011;67146;51.236;-0.336;2023-11-19T02:10:06;13.52;;;1.83;;
77948;SDS011;67146;51.236;-0.336;2023-11-19T02:13:09;17.20;;;2.78;;
77948;SDS011;67146;51.236;-0.336;2023-11-19T02:15:37;18.52;;;1.73;;
77948;SDS011;67146;51.236;-0.336;2023-11-19T02:18:19;20.48;;;2.75;;
77948;SDS011;67146;51.236;-0.336;2023-11-19T02:20:57;20.17;;;2.22;;
77948;SDS011;67146;51.236;-0.336;2023-11-19T02:23:26;22.67;;;4.15;;
77948;SDS011;67146;51.236;-0.336;2023-11-19T02:29:06;14.77;;;1.63;;
77948;SDS011;67146;51.236;-0.336;2023-11-19T02:31:58;22.42;;;2.50;;
77948;SDS011;67146;51.236;-0.336;2023-11-19T02:34:47;19.55;;;3.10;;
77948;SDS011;67146;51.236;-0.336;2023-11-19T02:37:33;21.75;;;2.53;;
77948;SDS011;67146;51.236;-0.336;2023-11-19T02:40:10;18.98;;;2.53;;
77948;SDS011;67146;51.236;-0.336;2023-11-19T02:43:08;19.85;;;1.75;;
77948;SDS011;67146;51.236;-0.336;2023-11-19T02:45:45;19.88;;;2.67;;
77948;SDS011;67146;51.236;-0.336;2023-11-19T02:48:13;22.40;;;3.40;;
77948;SDS011;67146;51.236;-0.336;2023-11-19T02:50:41;21.15;;;2.35;;
77948;SDS011;67146;51.236;-0.336;2023-11-19T02:56:02;21.95;;;2.58;;
77948;SDS011;67146;51.236;-0.336;2023-11-19T02:58:59;19.83;;;1.98;;
77948;SDS011;67146;51.236;-0.336;2023-11-19T03:01:42;24.40;;;2.65;;
77948;SDS011;67146;51.236;-0.336;2023-11-19T03:04:24;17.73;;;1.75;;
77948;SDS011;67146;51.236;-0.336;2023-11-19T03:07:00;23.35;;;2.58;;
77948;SDS011;67146;51.236;-0.336;2023-11-19T03:10:10;19.27;;;1.95;;
77948;SDS011;67146;51.236;-0.336;2023-11-19T03:12:46;27.58;;;3.10;;
77948;SDS011;67146;51.236;-0.336;2023-11-19T03:15:45;17.95;;;2.83;;
77948;SDS011;67146;51.236;-0.336;2023-11-19T03:18:17;19.25;;;2.05;;
77948;SDS011;67146;51.236;-0.336;2023-11-19T03:23:53;25.80;;;2.42;;
77948;SDS011;67146;51.236;-0.336;2023-11-19T03:26:21;18.20;;;1.80;;
77948;SDS011;67146;51.236;-0.336;2023-11-19T03:29:05;18.48;;;1.88;;
77948;SDS011;67146;51.236;-0.336;2023-11-19T03:31:56;18.88;;;3.70;;
77948;SDS011;67146;51.236;-0.336;2023-11-19T03:34:48;18.63;;;2.25;;
77948;SDS011;67146;51.236;-0.336;2023-11-19T03:38:01;28.42;;;4.63;;
77948;SDS011;67146;51.236;-0.336;2023-11-19T03:42:58;14.70;;;1.80;;
77948;SDS011;67146;51.236;-0.336;2023-11-19T03:45:58;20.67;;;2.15;;
77948;SDS011;67146;51.236;-0.336;2023-11-19T03:49:00;19.73;;;2.42;;
77948;SDS011;67146;51.236;-0.336;2023-11-19T03:54:11;22.67;;;2.28;;
77948;SDS011;67146;51.236;-0.336;2023-11-19T03:57:05;18.15;;;2.60;;
77948;SDS011;67146;51.236;-0.336;2023-11-19T03:59:41;33.63;;;3.65;;
77948;SDS011;67146;51.236;-0.336;2023-11-19T04:05:03;12.15;;;1.67;;
77948;SDS011;67146;51.236;-0.336;2023-11-19T04:10:38;19.55;;;2.03;;
77948;SDS011;67146;51.236;-0.336;2023-11-19T04:13:16;16.02;;;1.73;;
77948;SDS011;67146;51.236;-0.336;2023-11-19T04:15:55;21.05;;;3.58;;
77948;SDS011;67146;51.236;-0.336;2023-11-19T04:18:42;23.33;;;4.30;;
77948;SDS011;67146;51.236;-0.336;2023-11-19T04:21:47;19.98;;;2.95;;
77948;SDS011;67146;51.236;-0.336;2023-11-19T04:24:46;23.42;;;3.22;;
77948;SDS011;67146;51.236;-0.336;2023-11-19T04:27:34;16.27;;;2.10;;
77948;SDS011;67146;51.236;-0.336;2023-11-19T04:30:08;17.80;;;2.38;;
77948;SDS011;67146;51.236;-0.336;2023-11-19T04:32:49;19.00;;;2.50;;
77948;SDS011;67146;51.236;-0.336;2023-11-19T04:35:32;13.43;;;1.85;;
77948;SDS011;67146;51.236;-0.336;2023-11-19T04:38:08;21.92;;;2.65;;
77948;SDS011;67146;51.236;-0.336;2023-11-19T04:40:46;16.52;;;1.92;;
77948;SDS011;67146;51.236;-0.336;2023-11-19T04:43:12;19.17;;;2.03;;
77948;SDS011;67146;51.236;-0.336;2023-11-19T04:46:01;19.83;;;2.33;;
77948;SDS011;67146;51.236;-0.336;2023-11-19T04:48:37;17.38;;;2.13;;
77948;SDS011;67146;51.236;-0.336;2023-11-19T04:51:43;16.80;;;1.92;;
77948;SDS011;67146;51.236;-0.336;2023-11-19T04:57:36;26.02;;;3.22;;
77948;SDS011;67146;51.236;-0.336;2023-11-19T05:00:26;18.63;;;2.67;;
77948;SDS011;67146;51.236;-0.336;2023-11-19T05:03:05;18.73;;;2.33;;
77948;SDS011;67146;51.236;-0.336;2023-11-19T05:06:03;19.20;;;2.60;;
77948;SDS011;67146;51.236;-0.336;2023-11-19T05:08:54;23.77;;;3.28;;
77948;SDS011;67146;51.236;-0.336;2023-11-19T05:11:29;17.58;;;1.80;;
77948;SDS011;67146;51.236;-0.336;2023-11-19T05:14:05;22.73;;;3.67;;
77948;SDS011;67146;51.236;-0.336;2023-11-19T05:16:49;21.27;;;2.63;;
77948;SDS011;67146;51.236;-0.336;2023-11-19T05:19:17;26.17;;;3.40;;
77948;SDS011;67146;51.236;-0.336;2023-11-19T05:21:48;21.02;;;2.60;;
77948;SDS011;67146;51.236;-0.336;2023-11-19T05:24:32;17.05;;;2.17;;
77948;SDS011;67146;51.236;-0.336;2023-11-19T05:27:00;21.25;;;2.75;;
77948;SDS011;67146;51.236;-0.336;2023-11-19T05:29:41;13.80;;;1.67;;
77948;SDS011;67146;51.236;-0.336;2023-11-19T05:32:37;15.98;;;2.05;;
77948;SDS011;67146;51.236;-0.336;2023-11-19T05:35:10;29.65;;;3.05;;
77948;SDS011;67146;51.236;-0.336;2023-11-19T05:37:44;19.40;;;2.72;;
77948;SDS011;67146;51.236;-0.336;2023-11-19T05:40:30;30.98;;;2.80;;
77948;SDS011;67146;51.236;-0.336;2023-11-19T05:43:13;21.95;;;2.58;;
77948;SDS011;67146;51.236;-0.336;2023-11-19T05:45:59;17.73;;;1.88;;
77948;SDS011;67146;51.236;-0.336;2023-11-19T05:52:21;18.38;;;2.17;;
77948;SDS011;67146;51.236;-0.336;2023-11-19T05:55:06;28.63;;;2.85;;
77948;SDS011;67146;51.236;-0.336;2023-11-19T05:57:52;17.77;;;2.65;;
77948;SDS011;67146;51.236;-0.336;2023-11-19T06:00:31;18.65;;;2.78;;
77948;SDS011;67146;51.236;-0.336;2023-11-19T06:03:01;14.75;;;2.17;;
77948;SDS011;67146;51.236;-0.336;2023-11-19T06:05:52;19.77;;;2.05;;
77948;SDS011;67146;51.236;-0.336;2023-11-19T06:08:33;16.27;;;1.75;;
77948;SDS011;67146;51.236;-0.336;2023-11-19T06:11:06;21.60;;;3.70;;
77948;SDS011;67146;51.236;-0.336;2023-11-19T06:13:50;22.13;;;3.33;;
77948;SDS011;67146;51.236;-0.336;2023-11-19T06:16:25;15.95;;;1.65;;
77948;SDS011;67146;51.236;-0.336;2023-11-19T06:18:51;24.52;;;3.15;;
77948;SDS011;67146;51.236;-0.336;2023-11-19T06:21:39;16.45;;;1.83;;
77948;SDS011;67146;51.236;-0.336;2023-11-19T06:24:16;19.60;;;1.92;;
77948;SDS011;67146;51.236;-0.336;2023-11-19T06:29:25;13.02;;;1.65;;
77948;SDS011;67146;51.236;-0.336;2023-11-19T06:32:08;15.50;;;1.45;;
77948;SDS011;67146;51.236;-0.336;2023-11-19T06:34:50;18.38;;;2.42;;
77948;SDS011;67146;51.236;-0.336;2023-11-19T06:37:26;16.95;;;3.30;;
77948;SDS011;67146;51.236;-0.336;2023-11-19T06:40:09;13.18;;;1.73;;
77948;SDS011;67146;51.236;-0.336;2023-11-19T06:42:50;23.58;;;2.45;;
77948;SDS011;67146;51.236;-0.336;2023-11-19T06:45:30;22.52;;;2.25;;
77948;SDS011;67146;51.236;-0.336;2023-11-19T06:48:07;14.77;;;2.65;;
77948;SDS011;67146;51.236;-0.336;2023-11-19T06:50:36;17.08;;;2.38;;
77948;SDS011;67146;51.236;-0.336;2023-11-19T06:53:18;15.88;;;2.40;;
77948;SDS011;67146;51.236;-0.336;2023-11-19T06:56:00;18.77;;;1.98;;
77948;SDS011;67146;51.236;-0.336;2023-11-19T06:58:42;19.98;;;2.28;;
77948;SDS011;67146;51.236;-0.336;2023-11-19T07:01:08;20.08;;;2.08;;
77948;SDS011;67146;51.236;-0.336;2023-11-19T07:09:53;17.65;;;1.58;;
77948;SDS011;67146;51.236;-0.336;2023-11-19T07:12:21;9.50;;;0.95;;
77948;SDS011;67146;51.236;-0.336;2023-11-19T07:14:52;20.17;;;2.03;;
77948;SDS011;67146;51.236;-0.336;2023-11-19T07:17:23;14.10;;;1.10;;
77948;SDS011;67146;51.236;-0.336;2023-11-19T07:19:51;13.13;;;1.40;;
77948;SDS011;67146;51.236;-0.336;2023-11-19T07:22:19;16.88;;;2.47;;
77948;SDS011;67146;51.236;-0.336;2023-11-19T07:24:55;10.88;;;1.52;;
77948;SDS011;67146;51.236;-0.336;2023-11-19T07:27:38;13.43;;;1.17;;
77948;SDS011;67146;51.236;-0.336;2023-11-19T07:30:10;16.55;;;1.33;;
77948;SDS011;67146;51.236;-0.336;2023-11-19T07:32:44;15.90;;;1.77;;
77948;SDS011;67146;51.236;-0.336;2023-11-19T07:35:13;14.35;;;1.67;;
77948;SDS011;67146;51.236;-0.336;2023-11-19T07:37:43;14.32;;;1.77;;
77948;SDS011;67146;51.236;-0.336;2023-11-19T07:40:18;17.88;;;2.47;;
77948;SDS011;67146;51.236;-0.336;2023-11-19T07:42:47;10.20;;;1.55;;
77948;SDS011;67146;51.236;-0.336;2023-11-19T07:49:25;14.63;;;1.67;;
77948;SDS011;67146;51.236;-0.336;2023-11-19T07:52:28;11.85;;;1.98;;
77948;SDS011;67146;51.236;-0.336;2023-11-19T07:55:07;8.30;;;0.82;;
77948;SDS011;67146;51.236;-0.336;2023-11-19T07:57:53;16.27;;;1.90;;
77948;SDS011;67146;51.236;-0.336;2023-11-19T08:03:09;10.70;;;1.77;;
77948;SDS011;67146;51.236;-0.336;2023-11-19T08:05:47;16.42;;;1.70;;
77948;SDS011;67146;51.236;-0.336;2023-11-19T08:08:15;17.55;;;1.90;;
77948;SDS011;67146;51.236;-0.336;2023-11-19T08:10:43;11.88;;;1.48;;
77948;SDS011;67146;51.236;-0.336;2023-11-19T08:13:12;12.90;;;1.95;;
77948;SDS011;67146;51.236;-0.336;2023-11-19T08:15:38;13.35;;;2.00;;
77948;SDS011;67146;51.236;-0.336;2023-11-19T08:18:16;10.18;;;1.25;;
77948;SDS011;67146;51.236;-0.336;2023-11-19T08:20:46;13.93;;;1.70;;
77948;SDS011;67146;51.236;-0.336;2023-11-19T08:23:17;14.10;;;1.48;;
77948;SDS011;67146;51.236;-0.336;2023-11-19T08:25:53;13.45;;;1.40;;
77948;SDS011;67146;51.236;-0.336;2023-11-19T08:28:26;19.27;;;1.65;;
77948;SDS011;67146;51.236;-0.336;2023-11-19T08:30:59;13.57;;;1.90;;
77948;SDS011;67146;51.236;-0.336;2023-11-19T08:33:34;23.23;;;2.53;;
77948;SDS011;67146;51.236;-0.336;2023-11-19T08:36:02;9.90;;;1.75;;
77948;SDS011;67146;51.236;-0.336;2023-11-19T08:38:41;17.08;;;2.25;;
77948;SDS011;67146;51.236;-0.336;2023-11-19T08:43:52;16.20;;;1.88;;
77948;SDS011;67146;51.236;-0.336;2023-11-19T08:46:20;17.48;;;2.17;;
77948;SDS011;67146;51.236;-0.336;2023-11-19T08:48:46;12.20;;;1.27;;
77948;SDS011;67146;51.236;-0.336;2023-11-19T08:51:21;15.80;;;1.48;;
77948;SDS011;67146;51.236;-0.336;2023-11-19T08:53:53;15.73;;;2.20;;
77948;SDS011;67146;51.236;-0.336;2023-11-19T08:56:22;13.23;;;2.42;;
77948;SDS011;67146;51.236;-0.336;2023-11-19T08:58:57;18.13;;;3.03;;
77948;SDS011;67146;51.236;-0.336;2023-11-19T09:01:26;12.73;;;2.50;;
77948;SDS011;67146;51.236;-0.336;2023-11-19T09:03:52;13.88;;;2.25;;
77948;SDS011;67146;51.236;-0.336;2023-11-19T09:06:20;17.90;;;2.47;;
77948;SDS011;67146;51.236;-0.336;2023-11-19T09:08:53;11.40;;;1.55;;
77948;SDS011;67146;51.236;-0.336;2023-11-19T09:11:18;19.40;;;2.13;;
77948;SDS011;67146;51.236;-0.336;2023-11-19T09:13:49;15.48;;;2.58;;
77948;SDS011;67146;51.236;-0.336;2023-11-19T09:16:17;14.85;;;2.55;;
77948;SDS011;67146;51.236;-0.336;2023-11-19T09:18:54;22.90;;;2.05;;
77948;SDS011;67146;51.236;-0.336;2023-11-19T09:21:25;13.25;;;1.75;;
77948;SDS011;67146;51.236;-0.336;2023-11-19T09:24:33;21.45;;;3.30;;
77948;SDS011;67146;51.236;-0.336;2023-11-19T09:27:20;10.05;;;0.98;;
77948;SDS011;67146;51.236;-0.336;2023-11-19T09:30:15;12.80;;;2.30;;
77948;SDS011;67146;51.236;-0.336;2023-11-19T09:32:45;16.13;;;1.83;;
77948;SDS011;67146;51.236;-0.336;2023-11-19T09:35:16;14.05;;;1.95;;
77948;SDS011;67146;51.236;-0.336;2023-11-19T09:37:44;16.73;;;1.48;;
77948;SDS011;67146;51.236;-0.336;2023-11-19T09:40:22;14.88;;;2.25;;
77948;SDS011;67146;51.236;-0.336;2023-11-19T09:43:04;21.58;;;2.35;;
77948;SDS011;67146;51.236;-0.336;2023-11-19T09:45:44;15.70;;;1.80;;
77948;SDS011;67146;51.236;-0.336;2023-11-19T09:48:32;12.85;;;1.85;;
77948;SDS011;67146;51.236;-0.336;2023-11-19T09:51:28;16.80;;;2.63;;
77948;SDS011;67146;51.236;-0.336;2023-11-19T09:54:16;16.20;;;1.95;;
77948;SDS011;67146;51.236;-0.336;2023-11-19T09:56:53;12.52;;;2.03;;
77948;SDS011;67146;51.236;-0.336;2023-11-19T09:59:19;12.15;;;2.25;;
77948;SDS011;67146;51.236;-0.336;2023-11-19T10:01:51;9.65;;;1.60;;
77948;SDS011;67146;51.236;-0.336;2023-11-19T10:04:17;12.48;;;2.10;;
77948;SDS011;67146;51.236;-0.336;2023-11-19T10:09:38;7.93;;;0.98;;
77948;SDS011;67146;51.236;-0.336;2023-11-19T10:12:10;11.50;;;1.13;;
77948;SDS011;67146;51.236;-0.336;2023-11-19T10:14:56;8.55;;;1.50;;
77948;SDS011;67146;51.236;-0.336;2023-11-19T10:17:38;11.27;;;1.10;;
77948;SDS011;67146;51.236;-0.336;2023-11-19T10:20:18;10.10;;;1.65;;
77948;SDS011;67146;51.236;-0.336;2023-11-19T10:22:52;9.98;;;1.30;;
77948;SDS011;67146;51.236;-0.336;2023-11-19T10:25:24;13.45;;;1.55;;
77948;SDS011;67146;51.236;-0.336;2023-11-19T10:27:55;9.45;;;1.15;;
77948;SDS011;67146;51.236;-0.336;2023-11-19T10:30:29;10.25;;;2.25;;
77948;SDS011;67146;51.236;-0.336;2023-11-19T10:33:05;11.23;;;1.23;;
77948;SDS011;67146;51.236;-0.336;2023-11-19T10:35:50;11.57;;;1.77;;
77948;SDS011;67146;51.236;-0.336;2023-11-19T10:38:37;11.77;;;1.60;;
77948;SDS011;67146;51.236;-0.336;2023-11-19T10:41:10;11.68;;;2.03;;
77948;SDS011;67146;51.236;-0.336;2023-11-19T10:43:45;12.90;;;1.92;;
77948;SDS011;67146;51.236;-0.336;2023-11-19T10:46:23;9.82;;;1.35;;
77948;SDS011;67146;51.236;-0.336;2023-11-19T10:49:05;11.38;;;1.63;;
77948;SDS011;67146;51.236;-0.336;2023-11-19T10:51:44;9.80;;;1.42;;
77948;SDS011;67146;51.236;-0.336;2023-11-19T10:54:11;7.63;;;1.48;;
77948;SDS011;67146;51.236;-0.336;2023-11-19T10:56:43;7.88;;;1.60;;
77948;SDS011;67146;51.236;-0.336;2023-11-19T10:59:22;14.75;;;1.50;;
77948;SDS011;67146;51.236;-0.336;2023-11-19T11:01:54;15.45;;;2.22;;
77948;SDS011;67146;51.236;-0.336;2023-11-19T11:04:25;8.70;;;1.25;;
77948;SDS011;67146;51.236;-0.336;2023-11-19T11:06:55;9.95;;;2.00;;
77948;SDS011;67146;51.236;-0.336;2023-11-19T11:09:23;13.00;;;1.88;;
77948;SDS011;67146;51.236;-0.336;2023-11-19T11:12:01;13.75;;;1.50;;
77948;SDS011;67146;51.236;-0.336;2023-11-19T11:14:34;10.70;;;1.35;;
77948;SDS011;67146;51.236;-0.336;2023-11-19T11:17:07;12.32;;;1.58;;
77948;SDS011;67146;51.236;-0.336;2023-11-19T11:19:34;13.15;;;2.38;;
77948;SDS011;67146;51.236;-0.336;2023-11-19T11:22:01;14.77;;;1.58;;
77948;SDS011;67146;51.236;-0.336;2023-11-19T11:38:50;10.77;;;1.42;;
77948;SDS011;67146;51.236;-0.336;2023-11-19T11:41:22;11.20;;;1.23;;
77948;SDS011;67146;51.236;-0.336;2023-11-19T11:44:11;10.27;;;1.85;;
77948;SDS011;67146;51.236;-0.336;2023-11-19T11:46:53;17.45;;;2.72;;
77948;SDS011;67146;51.236;-0.336;2023-11-19T11:49:24;13.57;;;1.65;;
77948;SDS011;67146;51.236;-0.336;2023-11-19T11:51:57;14.75;;;1.63;;
77948;SDS011;67146;51.236;-0.336;2023-11-19T12:00:03;9.52;;;1.75;;
77948;SDS011;67146;51.236;-0.336;2023-11-19T12:05:26;9.80;;;1.10;;
77948;SDS011;67146;51.236;-0.336;2023-11-19T12:10:32;11.50;;;1.50;;
77948;SDS011;67146;51.236;-0.336;2023-11-19T12:13:15;4.70;;;0.82;;
77948;SDS011;67146;51.236;-0.336;2023-11-19T12:18:29;11.18;;;1.00;;
77948;SDS011;67146;51.236;-0.336;2023-11-19T12:21:02;9.75;;;1.45;;
77948;SDS011;67146;51.236;-0.336;2023-11-19T12:23:43;13.32;;;1.20;;
77948;SDS011;67146;51.236;-0.336;2023-11-19T12:26:34;16.70;;;1.63;;
77948;SDS011;67146;51.236;-0.336;2023-11-19T12:29:03;10.40;;;1.27;;
77948;SDS011;67146;51.236;-0.336;2023-11-19T12:31:38;11.43;;;1.80;;
77948;SDS011;67146;51.236;-0.336;2023-11-19T12:34:15;8.95;;;0.85;;
77948;SDS011;67146;51.236;-0.336;2023-11-19T12:36:50;13.32;;;2.22;;
77948;SDS011;67146;51.236;-0.336;2023-11-19T12:39:34;8.45;;;1.23;;
77948;SDS011;67146;51.236;-0.336;2023-11-19T12:42:16;9.05;;;0.95;;
77948;SDS011;67146;51.236;-0.336;2023-11-19T12:45:13;9.45;;;0.90;;
77948;SDS011;67146;51.236;-0.336;2023-11-19T12:47:45;12.10;;;1.65;;
77948;SDS011;67146;51.236;-0.336;2023-11-19T12:50:15;7.75;;;0.88;;
77948;SDS011;67146;51.236;-0.336;2023-11-19T12:52:47;10.55;;;1.77;;
77948;SDS011;67146;51.236;-0.336;2023-11-19T12:55:26;6.30;;;0.90;;
77948;SDS011;67146;51.236;-0.336;2023-11-19T12:57:57;13.80;;;1.90;;
77948;SDS011;67146;51.236;-0.336;2023-11-19T13:00:32;9.82;;;0.80;;
77948;SDS011;67146;51.236;-0.336;2023-11-19T13:03:09;9.88;;;0.90;;
77948;SDS011;67146;51.236;-0.336;2023-11-19T13:05:40;7.45;;;0.63;;
77948;SDS011;67146;51.236;-0.336;2023-11-19T13:08:09;7.03;;;1.15;;
77948;SDS011;67146;51.236;-0.336;2023-11-19T13:10:54;3.90;;;0.55;;
77948;SDS011;67146;51.236;-0.336;2023-11-19T13:13:27;7.55;;;0.75;;
77948;SDS011;67146;51.236;-0.336;2023-11-19T13:15:53;8.38;;;1.25;;
77948;SDS011;67146;51.236;-0.336;2023-11-19T13:18:21;7.07;;;0.85;;
77948;SDS011;67146;51.236;-0.336;2023-11-19T13:20:55;6.50;;;0.68;;
77948;SDS011;67146;51.236;-0.336;2023-11-19T13:23:25;8.75;;;1.02;;
77948;SDS011;67146;51.236;-0.336;2023-11-19T13:26:00;8.80;;;0.80;;
77948;SDS011;67146;51.236;-0.336;2023-11-19T13:28:28;9.63;;;0.93;;
77948;SDS011;67146;51.236;-0.336;2023-11-19T13:30:54;9.00;;;1.23;;
77948;SDS011;67146;51.236;-0.336;2023-11-19T13:33:27;7.45;;;0.73;;
77948;SDS011;67146;51.236;-0.336;2023-11-19T13:35:55;5.03;;;1.15;;
77948;SDS011;67146;51.236;-0.336;2023-11-19T13:38:35;7.82;;;1.13;;
77948;SDS011;67146;51.236;-0.336;2023-11-19T13:41:07;8.45;;;1.13;;
77948;SDS011;67146;51.236;-0.336;2023-11-19T13:43:44;7.10;;;0.60;;
77948;SDS011;67146;51.236;-0.336;2023-11-19T13:46:18;11.57;;;1.13;;
77948;SDS011;67146;51.236;-0.336;2023-11-19T13:48:46;7.20;;;1.05;;
77948;SDS011;67146;51.236;-0.336;2023-11-19T13:51:17;6.05;;;1.02;;
77948;SDS011;67146;51.236;-0.336;2023-11-19T13:53:45;8.57;;;1.10;;
77948;SDS011;67146;51.236;-0.336;2023-11-19T13:56:10;8.00;;;1.25;;
77948;SDS011;67146;51.236;-0.336;2023-11-19T13:58:38;5.50;;;0.38;;
77948;SDS011;67146;51.236;-0.336;2023-11-19T14:01:05;8.55;;;0.88;;
77948;SDS011;67146;51.236;-0.336;2023-11-19T14:03:31;4.97;;;0.35;;
77948;SDS011;67146;51.236;-0.336;2023-11-19T14:06:02;6.38;;;0.57;;
77948;SDS011;67146;51.236;-0.336;2023-11-19T14:08:33;6.90;;;0.73;;
77948;SDS011;67146;51.236;-0.336;2023-11-19T14:11:01;7.07;;;0.75;;
77948;SDS011;67146;51.236;-0.336;2023-11-19T14:13:32;5.70;;;0.88;;
77948;SDS011;67146;51.236;-0.336;2023-11-19T14:15:59;6.45;;;0.80;;
77948;SDS011;67146;51.236;-0.336;2023-11-19T14:18:25;5.80;;;0.82;;
77948;SDS011;67146;51.236;-0.336;2023-11-19T14:20:51;9.27;;;0.73;;
77948;SDS011;67146;51.236;-0.336;2023-11-19T14:23:17;7.97;;;0.55;;
77948;SDS011;67146;51.236;-0.336;2023-11-19T14:25:52;7.28;;;0.77;;
77948;SDS011;67146;51.236;-0.336;2023-11-19T14:28:25;5.40;;;0.43;;
77948;SDS011;67146;51.236;-0.336;2023-11-19T14:31:01;4.65;;;0.63;;
77948;SDS011;67146;51.236;-0.336;2023-11-19T14:33:27;8.13;;;1.10;;
77948;SDS011;67146;51.236;-0.336;2023-11-19T14:35:57;5.43;;;0.30;;
77948;SDS011;67146;51.236;-0.336;2023-11-19T14:38:25;10.88;;;1.05;;
77948;SDS011;67146;51.236;-0.336;2023-11-19T14:40:51;6.03;;;0.90;;
77948;SDS011;67146;51.236;-0.336;2023-11-19T14:43:24;8.05;;;0.65;;
77948;SDS011;67146;51.236;-0.336;2023-11-19T14:45:50;6.53;;;0.68;;
77948;SDS011;67146;51.236;-0.336;2023-11-19T14:48:18;4.97;;;0.82;;
77948;SDS011;67146;51.236;-0.336;2023-11-19T14:50:44;3.15;;;0.30;;
77948;SDS011;67146;51.236;-0.336;2023-11-19T14:53:29;6.95;;;0.93;;
77948;SDS011;67146;51.236;-0.336;2023-11-19T14:55:58;5.95;;;0.77;;
77948;SDS011;67146;51.236;-0.336;2023-11-19T14:58:42;8.43;;;0.50;;
77948;SDS011;67146;51.236;-0.336;2023-11-19T15:01:18;6.65;;;0.88;;
77948;SDS011;67146;51.236;-0.336;2023-11-19T15:03:56;8.18;;;0.68;;
77948;SDS011;67146;51.236;-0.336;2023-11-19T15:06:28;9.15;;;0.98;;
77948;SDS011;67146;51.236;-0.336;2023-11-19T15:09:00;9.43;;;0.70;;
77948;SDS011;67146;51.236;-0.336;2023-11-19T15:11:32;4.60;;;0.45;;
77948;SDS011;67146;51.236;-0.336;2023-11-19T15:14:01;5.50;;;0.60;;
77948;SDS011;67146;51.236;-0.336;2023-11-19T15:16:31;5.63;;;0.68;;
77948;SDS011;67146;51.236;-0.336;2023-11-19T15:19:08;6.63;;;1.05;;
77948;SDS011;67146;51.236;-0.336;2023-11-19T15:21:43;7.03;;;0.40;;
77948;SDS011;67146;51.236;-0.336;2023-11-19T15:24:08;5.35;;;0.60;;
77948;SDS011;67146;51.236;-0.336;2023-11-19T15:26:39;4.15;;;0.68;;
77948;SDS011;67146;51.236;-0.336;2023-11-19T15:29:15;5.30;;;0.75;;
77948;SDS011;67146;51.236;-0.336;2023-11-19T15:31:48;6.63;;;0.60;;
77948;SDS011;67146;51.236;-0.336;2023-11-19T15:34:16;5.50;;;0.73;;
77948;SDS011;67146;51.236;-0.336;2023-11-19T15:36:54;3.67;;;0.22;;
77948;SDS011;67146;51.236;-0.336;2023-11-19T15:39:22;6.05;;;0.65;;
77948;SDS011;67146;51.236;-0.336;2023-11-19T15:41:57;6.65;;;0.45;;
77948;SDS011;67146;51.236;-0.336;2023-11-19T15:44:24;5.80;;;0.73;;
77948;SDS011;67146;51.236;-0.336;2023-11-19T15:46:55;3.90;;;0.45;;
77948;SDS011;67146;51.236;-0.336;2023-11-19T15:49:21;7.35;;;0.60;;
77948;SDS011;67146;51.236;-0.336;2023-11-19T15:54:15;5.25;;;0.80;;
77948;SDS011;67146;51.236;-0.336;2023-11-19T15:56:43;4.60;;;0.35;;
77948;SDS011;67146;51.236;-0.336;2023-11-19T15:59:08;4.25;;;0.38;;
77948;SDS011;67146;51.236;-0.336;2023-11-19T16:01:34;4.20;;;0.68;;
77948;SDS011;67146;51.236;-0.336;2023-11-19T16:04:01;4.70;;;0.22;;
77948;SDS011;67146;51.236;-0.336;2023-11-19T16:06:29;6.22;;;0.65;;
77948;SDS011;67146;51.236;-0.336;2023-11-19T16:09:06;6.55;;;0.55;;
77948;SDS011;67146;51.236;-0.336;2023-11-19T16:11:34;6.88;;;0.57;;
77948;SDS011;67146;51.236;-0.336;2023-11-19T16:14:16;8.15;;;0.50;;
77948;SDS011;67146;51.236;-0.336;2023-11-19T16:20:01;4.60;;;0.75;;
77948;SDS011;67146;51.236;-0.336;2023-11-19T16:22:31;4.97;;;0.60;;
77948;SDS011;67146;51.236;-0.336;2023-11-19T16:24:57;7.47;;;0.73;;
77948;SDS011;67146;51.236;-0.336;2023-11-19T16:27:27;6.80;;;0.88;;
77948;SDS011;67146;51.236;-0.336;2023-11-19T16:29:55;10.40;;;0.95;;
77948;SDS011;67146;51.236;-0.336;2023-11-19T16:33:09;3.53;;;0.50;;
77948;SDS011;67146;51.236;-0.336;2023-11-19T16:35:49;8.27;;;0.75;;
77948;SDS011;67146;51.236;-0.336;2023-11-19T16:38:42;7.10;;;0.75;;
77948;SDS011;67146;51.236;-0.336;2023-11-19T16:41:14;7.90;;;0.43;;
77948;SDS011;67146;51.236;-0.336;2023-11-19T16:43:51;5.45;;;0.43;;
77948;SDS011;67146;51.236;-0.336;2023-11-19T16:46:26;7.30;;;0.60;;
77948;SDS011;67146;51.236;-0.336;2023-11-19T16:49:03;8.25;;;0.73;;
77948;SDS011;67146;51.236;-0.336;2023-11-19T16:51:31;5.75;;;0.50;;
77948;SDS011;67146;51.236;-0.336;2023-11-19T16:54:02;3.70;;;0.60;;
77948;SDS011;67146;51.236;-0.336;2023-11-19T16:56:28;7.03;;;0.65;;
77948;SDS011;67146;51.236;-0.336;2023-11-19T16:59:08;7.85;;;1.20;;